Time;durP1;ratioP1;P1;durP2;ratioP2;P2;SDS_P1;SDS_P2;PMS_P1;PMS_P2;Temp;Humidity;BMP_temperature;BMP_pressure;BME280_temperature;BME280_humidity;BME280_pressure;Samples;Min_cycle;Max_cycle;Signal;HPM_P1;HPM_P2
2024/04/07 00:01:40;;;;;;;;;;;;;;;18.54;44.49;98839.59;5074230;28;20004;-79
2024/04/07 00:04:05;;;;;;;;;;;;;;;18.56;44.95;98842.72;5073442;28;19971;-82
2024/04/07 00:06:31;;;;;;;;;;;;;;;18.56;45.58;98847.53;5074321;28;19923;-82
2024/04/07 00:08:56;;;;;;;;;;;;;;;18.41;46.65;98835.56;5072998;28;19973;-82
2024/04/07 00:11:22;;;;;;;;;;;;;;;18.29;47.77;98857.78;5073678;28;20174;-80
2024/04/07 00:13:48;;;;;;;;;;;;;;;18.25;47.89;98853.66;5073035;28;19923;-80
2024/04/07 00:16:13;;;;;;;;;;;;;;;18.28;48.36;98861.06;5072648;28;19917;-81
2024/04/07 00:18:39;;;;;;;;;;;;;;;18.25;48.32;98859.25;5072602;28;19920;-81
2024/04/07 00:21:04;;;;;;;;;;;;;;;18.25;48.35;98862.06;5072509;28;20373;-82
2024/04/07 00:23:30;;;;;;;;;;;;;;;18.27;48.26;98859.53;5072622;28;19916;-80
2024/04/07 00:25:55;;;;;;;;;;;;;;;18.26;48.41;98861.53;5073219;28;19920;-80
2024/04/07 00:28:21;;;;;;;;;;;;;;;18.28;48.83;98850.66;5074107;28;20050;-84
2024/04/07 00:30:47;;;;;;;;;;;;;;;18.36;46.83;98862.22;5073774;28;19917;-80
2024/04/07 00:33:12;;;;;;;;;;;;;;;18.50;46.03;98853.03;5072618;28;20372;-80
2024/04/07 00:35:37;;;;;;;;;;;;;;;18.64;45.19;98854.25;5071847;28;19916;-81
2024/04/07 00:38:03;;;;;;;;;;;;;;;18.84;43.73;98847.91;5072508;28;20054;-82
2024/04/07 00:40:28;;;;;;;;;;;;;;;18.99;43.78;98854.22;5073405;28;20370;-79
2024/04/07 00:42:54;;;;;;;;;;;;;;;19.04;43.31;98853.53;5072317;28;19918;-80
2024/04/07 00:45:19;;;;;;;;;;;;;;;19.18;42.84;98851.91;5071820;28;19916;-80
2024/04/07 00:47:45;;;;;;;;;;;;;;;19.23;42.70;98848.41;5072429;28;19920;-81
2024/04/07 00:50:11;;;;;;;;;;;;;;;19.31;42.37;98849.50;5073394;28;20011;-82
2024/04/07 00:52:37;;;;;;;;;;;;;;;19.31;42.32;98857.91;5073109;28;19974;-80
2024/04/07 00:55:02;;;;;;;;;;;;;;;19.31;42.69;98847.47;5071988;28;19931;-84
2024/04/07 00:57:29;;;;;;;;;;;;;;;19.35;42.13;98839.63;5073296;28;19920;-80
2024/04/07 00:59:55;;;;;;;;;;;;;;;19.36;41.96;98841.16;5072147;28;20522;-83
2024/04/07 01:02:20;;;;;;;;;;;;;;;19.33;42.56;98839.34;5071845;28;19920;-80
2024/04/07 01:04:45;;;;;;;;;;;;;;;19.33;42.43;98842.16;5071480;28;19923;-83
2024/04/07 01:07:11;;;;;;;;;;;;;;;19.21;43.33;98845.31;5071528;28;19917;-83
2024/04/07 01:09:36;;;;;;;;;;;;;;;19.18;43.13;98840.69;5071825;28;19920;-81
2024/04/07 01:12:14;;;;;;;;;;;;;;;19.09;43.70;98833.22;5071616;28;19917;-80
2024/04/07 01:14:40;;;;;;;;;;;;;;;19.17;42.87;98837.13;5071764;28;19920;-83
2024/04/07 01:17:06;;;;;;;;;;;;;;;19.17;42.80;98833.56;5071535;28;20054;-79
2024/04/07 01:19:32;;;;;;;;;;;;;;;19.21;43.16;98840.50;5067309;28;19917;-80
2024/04/07 01:21:57;;;;;;;;;;;;;;;19.09;43.29;98833.22;5063387;28;20362;-79
2024/04/07 01:24:22;;;;;;;;;;;;;;;19.04;43.71;98831.91;5072899;28;19928;-83
2024/04/07 01:26:47;;;;;;;;;;;;;;;19.13;43.72;98841.41;5072537;28;19920;-80
2024/04/07 01:29:13;;;;;;;;;;;;;;;19.05;42.99;98835.44;5072602;28;20007;-79
2024/04/07 01:31:38;;;;;;;;;;;;;;;19.05;43.38;98833.41;5071223;28;19924;-80
2024/04/07 01:34:04;;;;;;;;;;;;;;;19.11;43.34;98847.47;5070966;28;20386;-80
2024/04/07 01:36:29;;;;;;;;;;;;;;;19.14;42.98;98842.94;5071070;28;19924;-80
2024/04/07 01:38:54;;;;;;;;;;;;;;;19.13;43.44;98844.97;5071285;28;20321;-81
2024/04/07 01:41:20;;;;;;;;;;;;;;;19.15;42.65;98841.69;5071322;28;20305;-80
2024/04/07 01:43:45;;;;;;;;;;;;;;;19.37;41.97;98837.09;5071271;28;19970;-83
2024/04/07 01:46:10;;;;;;;;;;;;;;;19.48;42.52;98842.06;5070554;28;20018;-82
2024/04/07 01:48:36;;;;;;;;;;;;;;;19.53;42.24;98832.22;5072169;28;19923;-81
2024/04/07 01:51:01;;;;;;;;;;;;;;;19.46;42.09;98839.03;5070494;28;20337;-81
2024/04/07 01:53:27;;;;;;;;;;;;;;;19.43;42.17;98849.13;5071157;28;19962;-80
2024/04/07 01:55:53;;;;;;;;;;;;;;;19.50;42.11;98854.34;5070973;28;19939;-80
2024/04/07 01:58:18;;;;;;;;;;;;;;;19.55;42.55;98850.06;5071135;28;20015;-80
2024/04/07 02:00:43;;;;;;;;;;;;;;;19.50;42.94;98856.38;5070867;28;19942;-83
2024/04/07 02:03:08;;;;;;;;;;;;;;;19.53;42.64;98849.03;5070748;28;20014;-81
2024/04/07 02:05:34;;;;;;;;;;;;;;;19.53;42.96;98846.22;5070983;28;20381;-81
2024/04/07 02:07:59;;;;;;;;;;;;;;;19.56;43.35;98842.41;5070660;28;19920;-80
2024/04/07 02:10:24;;;;;;;;;;;;;;;19.48;43.15;98842.84;5072266;28;20457;-84
2024/04/07 02:12:49;;;;;;;;;;;;;;;19.57;42.70;98850.34;5070658;28;19912;-83
2024/04/07 02:15:15;;;;;;;;;;;;;;;19.60;42.88;98840.94;5070726;28;19926;-83
2024/04/07 02:17:40;;;;;;;;;;;;;;;19.52;43.42;98839.84;5070646;28;19916;-80
2024/04/07 02:20:08;;;;;;;;;;;;;;;19.42;43.96;98839.19;5070278;28;19916;-80
2024/04/07 02:22:34;;;;;;;;;;;;;;;19.33;43.86;98836.56;5070780;28;19931;-80
2024/04/07 02:24:59;;;;;;;;;;;;;;;19.40;43.35;98841.72;5070657;28;20317;-80
2024/04/07 02:27:24;;;;;;;;;;;;;;;19.44;43.68;98841.50;5070471;28;19970;-80
2024/04/07 02:29:49;;;;;;;;;;;;;;;19.39;43.55;98851.41;5070451;28;20386;-83
2024/04/07 02:32:15;;;;;;;;;;;;;;;19.40;43.39;98852.94;5070168;28;20011;-80
2024/04/07 02:34:40;;;;;;;;;;;;;;;19.50;43.22;98868.34;5070186;28;20394;-80
2024/04/07 02:37:06;;;;;;;;;;;;;;;19.43;43.38;98879.97;5069877;28;20343;-80
2024/04/07 02:39:32;;;;;;;;;;;;;;;19.25;45.83;98904.69;5070119;28;19921;-80
2024/04/07 02:41:57;;;;;;;;;;;;;;;18.67;49.46;98912.06;5070135;28;19920;-82
2024/04/07 02:48:04;;;;;;;;;;;;;;;18.17;51.91;98931.59;5070322;28;19985;-80
2024/04/07 02:49:52;;;;;;;;;;;;;;;17.14;59.71;98930.59;5071603;28;19946;-81
2024/04/07 02:52:17;;;;;;;;;;;;;;;16.80;63.11;98931.88;5070472;28;19924;-80
2024/04/07 02:54:42;;;;;;;;;;;;;;;16.56;65.66;98951.34;5070545;28;19924;-81
2024/04/07 02:57:08;;;;;;;;;;;;;;;16.43;67.42;98947.19;5070394;28;20007;-81
2024/04/07 02:59:33;;;;;;;;;;;;;;;16.31;69.14;98946.16;5073126;28;20419;-80
2024/04/07 03:01:59;;;;;;;;;;;;;;;16.17;70.61;98969.88;5058666;28;19916;-81
2024/04/07 03:04:24;;;;;;;;;;;;;;;16.09;72.59;98967.88;5068508;28;19924;-83
2024/04/07 03:06:51;;;;;;;;;;;;;;;15.97;74.49;98980.75;5076000;28;20356;-81
2024/04/07 03:09:16;;;;;;;;;;;;;;;15.89;76.51;98996.25;5074937;28;19921;-80
2024/04/07 03:11:42;;;;;;;;;;;;;;;15.76;77.39;99006.75;5075942;28;20401;-80
2024/04/07 03:14:07;;;;;;;;;;;;;;;15.75;77.81;99014.34;5075646;28;19939;-80
2024/04/07 03:16:32;;;;;;;;;;;;;;;15.75;77.60;99025.47;5073964;28;19920;-82
2024/04/07 03:18:58;;;;;;;;;;;;;;;15.86;77.83;99028.59;5074371;28;20342;-80
2024/04/07 03:21:23;;;;;;;;;;;;;;;15.99;77.14;99036.00;5073823;28;19916;-83
2024/04/07 03:23:49;;;;;;;;;;;;;;;15.82;77.69;99044.69;5073795;28;19912;-81
2024/04/07 03:26:14;;;;;;;;;;;;;;;15.81;78.94;99037.56;5074067;28;19912;-80
2024/04/07 03:28:40;;;;;;;;;;;;;;;15.88;78.59;99031.69;5074985;28;19919;-80
2024/04/07 03:31:05;;;;;;;;;;;;;;;15.77;79.82;99019.47;5073884;28;19969;-80
2024/04/07 03:33:35;;;;;;;;;;;;;;;15.60;81.88;99021.78;5077760;28;19916;-82
2024/04/07 03:36:02;;;;;;;;;;;;;;;15.68;81.46;99025.78;5074322;28;19917;-80
2024/04/07 03:38:27;;;;;;;;;;;;;;;15.80;81.16;99029.66;5074163;28;20070;-81
2024/04/07 03:40:52;;;;;;;;;;;;;;;15.83;80.44;99034.31;5073720;28;19969;-80
2024/04/07 03:43:18;;;;;;;;;;;;;;;15.83;80.71;99039.88;5074348;28;20403;-82
2024/04/07 03:45:44;;;;;;;;;;;;;;;15.87;80.26;99046.06;5073701;28;19974;-80
2024/04/07 03:48:09;;;;;;;;;;;;;;;16.01;79.34;99042.69;5074120;28;19920;-79
2024/04/07 03:50:34;;;;;;;;;;;;;;;16.04;78.69;99046.53;5073966;28;19923;-80
2024/04/07 03:53:00;;;;;;;;;;;;;;;16.04;78.72;99050.09;5074393;28;19916;-81
2024/04/07 03:55:25;;;;;;;;;;;;;;;15.97;79.26;99052.44;5074417;28;19970;-80
2024/04/07 03:57:52;;;;;;;;;;;;;;;15.87;80.01;99058.00;5073146;28;19978;-80
2024/04/07 04:00:17;;;;;;;;;;;;;;;15.76;80.79;99054.91;5072900;28;20304;-80
2024/04/07 04:02:45;;;;;;;;;;;;;;;15.52;82.11;99055.91;5073399;28;19916;-83
2024/04/07 04:05:10;;;;;;;;;;;;;;;15.44;83.02;99069.34;5073777;28;19970;-80
2024/04/07 04:07:35;;;;;;;;;;;;;;;15.24;84.23;99060.66;5073918;28;19920;-80
2024/04/07 04:10:01;;;;;;;;;;;;;;;15.11;85.68;99057.97;5072130;28;19960;-82
2024/04/07 04:12:26;;;;;;;;;;;;;;;15.15;85.47;99072.50;5072892;28;20390;-81
2024/04/07 04:14:56;;;;;;;;;;;;;;;15.06;86.89;99078.84;5074145;28;19916;-80
2024/04/07 04:17:21;;;;;;;;;;;;;;;15.04;87.54;99081.28;5073203;28;19924;-81
2024/04/07 04:19:46;;;;;;;;;;;;;;;15.09;87.81;99077.13;5072912;28;19921;-80
2024/04/07 04:22:12;;;;;;;;;;;;;;;15.29;86.29;99074.72;5073241;28;19943;-82
2024/04/07 04:24:37;;;;;;;;;;;;;;;15.47;84.19;99080.34;5073374;28;19920;-81
2024/04/07 04:27:03;;;;;;;;;;;;;;;15.47;83.30;99069.22;5073053;28;19932;-80
2024/04/07 04:29:29;;;;;;;;;;;;;;;15.36;83.25;99076.47;5074189;28;19967;-80
2024/04/07 04:31:55;;;;;;;;;;;;;;;15.29;83.81;99069.16;5073307;28;19920;-80
2024/04/07 04:34:20;;;;;;;;;;;;;;;15.06;84.27;99078.06;5074310;28;19917;-81
2024/04/07 04:36:47;;;;;;;;;;;;;;;14.88;84.91;99072.41;5073427;28;19923;-83
2024/04/07 04:39:12;;;;;;;;;;;;;;;14.78;85.48;99077.13;5072841;28;19916;-80
2024/04/07 04:41:38;;;;;;;;;;;;;;;14.91;85.86;99082.59;5072951;28;20378;-82
2024/04/07 04:44:03;;;;;;;;;;;;;;;15.23;84.73;99082.13;5073597;28;19917;-79
2024/04/07 04:46:28;;;;;;;;;;;;;;;15.92;81.80;99078.13;5072861;28;20015;-83
2024/04/07 04:48:54;;;;;;;;;;;;;;;17.02;75.70;99076.75;5072361;28;20306;-83
2024/04/07 04:51:19;;;;;;;;;;;;;;;18.11;67.70;99075.34;5072367;28;19973;-80
2024/04/07 04:53:44;;;;;;;;;;;;;;;18.94;62.28;99078.91;5072054;28;20638;-80
2024/04/07 04:56:10;;;;;;;;;;;;;;;19.72;59.31;99085.72;5072166;28;19927;-80
2024/04/07 04:58:35;;;;;;;;;;;;;;;20.46;54.94;99083.31;5072119;28;19930;-80
2024/04/07 05:01:10;;;;;;;;;;;;;;;20.77;53.45;99086.19;5072790;28;19928;-80
2024/04/07 05:03:36;;;;;;;;;;;;;;;21.26;51.72;99092.75;5059630;28;19920;-80
2024/04/07 05:06:20;;;;;;;;;;;;;;;21.83;50.00;99098.97;5071951;28;19916;-81
2024/04/07 05:08:46;;;;;;;;;;;;;;;21.91;49.22;99088.78;5072002;28;19916;-80
2024/04/07 05:11:11;;;;;;;;;;;;;;;22.56;48.45;99094.41;5072247;28;19917;-81
2024/04/07 05:13:37;;;;;;;;;;;;;;;23.55;45.21;99100.63;5073303;28;19924;-82
2024/04/07 05:16:02;;;;;;;;;;;;;;;24.31;43.30;99097.31;5072262;28;19916;-83
2024/04/07 05:18:28;;;;;;;;;;;;;;;24.71;41.68;99105.03;5073267;28;20001;-81
2024/04/07 05:20:55;;;;;;;;;;;;;;;24.78;41.41;99111.41;5071349;28;19916;-81
2024/04/07 05:23:21;;;;;;;;;;;;;;;24.60;41.72;99112.81;5071352;28;19994;-83
2024/04/07 05:25:46;;;;;;;;;;;;;;;24.29;42.55;99106.31;5072934;28;19921;-83
2024/04/07 05:28:11;;;;;;;;;;;;;;;24.69;41.49;99109.69;5071561;28;20309;-83
2024/04/07 05:30:37;;;;;;;;;;;;;;;24.54;41.83;99106.44;5063980;28;20382;-81
2024/04/07 05:33:03;;;;;;;;;;;;;;;23.54;43.36;99101.91;5061113;28;19920;-82
2024/04/07 05:35:28;;;;;;;;;;;;;;;23.48;43.78;99103.97;5067116;28;20562;-81
2024/04/07 05:37:54;;;;;;;;;;;;;;;24.32;42.82;99101.69;5071427;28;20445;-84
2024/04/07 05:40:22;;;;;;;;;;;;;;;25.32;40.48;99103.06;5071588;28;19924;-82
2024/04/07 05:42:47;;;;;;;;;;;;;;;25.85;39.27;99093.81;5065246;28;19924;-82
2024/04/07 05:45:12;;;;;;;;;;;;;;;26.45;37.34;99087.94;5064768;28;19929;-83
2024/04/07 05:47:38;;;;;;;;;;;;;;;26.72;36.97;99092.41;5059587;28;20804;-84
2024/04/07 05:50:04;;;;;;;;;;;;;;;27.30;35.55;99088.19;5070622;28;19912;-81
2024/04/07 05:52:29;;;;;;;;;;;;;;;28.13;34.65;99080.94;5071993;28;19963;-82
2024/04/07 05:54:54;;;;;;;;;;;;;;;28.12;33.99;99085.06;5070539;28;19997;-82
2024/04/07 05:57:20;;;;;;;;;;;;;;;26.93;36.04;99095.50;5065212;28;19932;-82
2024/04/07 05:59:48;;;;;;;;;;;;;;;27.07;35.90;99080.03;5060227;28;19925;-82
2024/04/07 06:02:14;;;;;;;;;;;;;;;27.68;34.82;99094.47;5071540;28;19921;-84
2024/04/07 06:04:39;;;;;;;;;;;;;;;27.83;34.48;99100.38;5070652;28;19919;-82
2024/04/07 06:07:05;;;;;;;;;;;;;;;28.03;35.91;99094.03;5072003;28;20455;-82
2024/04/07 06:09:30;;;;;;;;;;;;;;;28.67;33.61;99097.34;5064705;28;20004;-81
2024/04/07 06:11:55;;;;;;;;;;;;;;;28.96;33.33;99094.63;5061305;28;19921;-81
2024/04/07 06:14:21;;;;;;;;;;;;;;;29.56;32.23;99082.25;5070530;28;19978;-85
2024/04/07 06:16:46;;;;;;;;;;;;;;;29.83;31.01;99090.06;5071327;28;19916;-82
2024/04/07 06:19:11;;;;;;;;;;;;;;;29.40;31.90;99087.06;5070676;28;19916;-82
2024/04/07 06:21:36;;;;;;;;;;;;;;;30.03;31.04;99087.69;5070962;28;19971;-82
2024/04/07 06:24:02;;;;;;;;;;;;;;;30.58;30.41;99082.44;5070263;28;19969;-83
2024/04/07 06:26:28;;;;;;;;;;;;;;;30.42;30.14;99072.31;5070878;28;20409;-84
2024/04/07 06:28:53;;;;;;;;;;;;;;;30.79;30.21;99082.31;5070425;28;19921;-83
2024/04/07 06:31:19;;;;;;;;;;;;;;;30.65;29.91;99079.63;5070585;28;19927;-83
2024/04/07 06:33:44;;;;;;;;;;;;;;;31.12;30.15;99082.00;5070024;28;19916;-84
2024/04/07 06:36:11;;;;;;;;;;;;;;;31.51;28.63;99082.78;5070461;28;19927;-84
2024/04/07 06:38:36;;;;;;;;;;;;;;;31.98;28.28;99084.25;5070328;28;19913;-83
2024/04/07 06:41:02;;;;;;;;;;;;;;;31.83;29.79;99091.50;5070322;28;19919;-83
2024/04/07 06:43:27;;;;;;;;;;;;;;;32.14;28.45;99091.47;5071367;28;19912;-84
2024/04/07 06:45:54;;;;;;;;;;;;;;;31.90;28.05;99096.47;5070556;28;19966;-83
2024/04/07 06:48:19;;;;;;;;;;;;;;;31.96;28.16;99093.41;5070287;28;20011;-84
2024/04/07 06:50:45;;;;;;;;;;;;;;;31.90;28.05;99087.88;5070646;28;19963;-84
2024/04/07 06:53:10;;;;;;;;;;;;;;;31.68;28.87;99093.66;5071207;28;19982;-84
2024/04/07 06:55:35;;;;;;;;;;;;;;;31.01;29.83;99087.31;5070199;28;19921;-82
2024/04/07 06:58:01;;;;;;;;;;;;;;;31.27;29.91;99084.13;5067327;28;19955;-80
2024/04/07 07:00:26;;;;;;;;;;;;;;;31.89;27.98;99085.59;5067459;28;20439;-80
2024/04/07 07:02:51;;;;;;;;;;;;;;;31.74;29.03;99083.53;5058244;28;19944;-79
2024/04/07 07:05:19;;;;;;;;;;;;;;;30.93;29.39;99084.44;5057922;28;19939;-81
2024/04/07 07:07:44;;;;;;;;;;;;;;;32.06;28.11;99096.44;5056924;28;19924;-81
2024/04/07 07:10:10;;;;;;;;;;;;;;;32.06;27.05;99091.47;5070257;28;19912;-80
2024/04/07 07:12:35;;;;;;;;;;;;;;;32.37;27.36;99092.16;5069960;28;19920;-81
2024/04/07 07:15:00;;;;;;;;;;;;;;;32.57;26.41;99098.91;5070628;28;20305;-84
2024/04/07 07:17:26;;;;;;;;;;;;;;;32.97;26.04;99104.66;5071329;28;19921;-82
2024/04/07 07:19:51;;;;;;;;;;;;;;;32.85;27.01;99100.72;5069311;28;20368;-80
2024/04/07 07:22:16;;;;;;;;;;;;;;;33.40;25.47;99109.88;5069709;28;19999;-81
2024/04/07 07:24:42;;;;;;;;;;;;;;;34.24;23.63;99104.13;5069616;28;19916;-81
2024/04/07 07:27:07;;;;;;;;;;;;;;;34.62;23.59;99097.16;5070710;28;20431;-81
2024/04/07 07:29:33;;;;;;;;;;;;;;;33.26;24.57;99107.91;5070856;28;20007;-82
2024/04/07 07:31:58;;;;;;;;;;;;;;;32.22;26.22;99110.13;5069441;28;20374;-80
2024/04/07 07:34:23;;;;;;;;;;;;;;;32.07;26.32;99098.69;5069217;28;20381;-80
2024/04/07 07:36:49;;;;;;;;;;;;;;;32.26;26.65;99104.75;5069341;28;19912;-80
2024/04/07 07:39:14;;;;;;;;;;;;;;;32.52;26.72;99105.63;5069356;28;20421;-81
2024/04/07 07:41:40;;;;;;;;;;;;;;;32.79;26.00;99112.41;5070746;28;19919;-80
2024/04/07 07:44:05;;;;;;;;;;;;;;;31.83;26.32;99099.31;5070683;28;19913;-82
2024/04/07 07:46:30;;;;;;;;;;;;;;;30.38;29.42;99092.63;5073155;28;20378;-80
2024/04/07 07:48:56;;;;;;;;;;;;;;;28.68;31.51;99095.25;5074217;28;19916;-80
2024/04/07 07:51:21;;;;;;;;;;;;;;;27.69;32.68;99096.78;5072912;28;20301;-79
2024/04/07 07:53:48;;;;;;;;;;;;;;;27.70;32.95;99095.47;5074277;28;19998;-79
2024/04/07 07:56:13;;;;;;;;;;;;;;;26.91;34.32;99095.25;5072805;28;20477;-80
2024/04/07 07:58:38;;;;;;;;;;;;;;;26.33;34.31;99087.31;5072239;28;19926;-82
2024/04/07 08:01:04;;;;;;;;;;;;;;;25.93;36.22;99089.06;5074334;28;19912;-80
2024/04/07 08:03:29;;;;;;;;;;;;;;;26.00;36.00;99092.59;5072932;28;19920;-79
2024/04/07 08:05:55;;;;;;;;;;;;;;;25.90;35.71;99089.38;5072867;28;20386;-80
2024/04/07 08:08:20;;;;;;;;;;;;;;;25.91;35.54;99086.03;5072548;28;19969;-82
2024/04/07 08:10:46;;;;;;;;;;;;;;;26.19;34.96;99082.81;5073124;28;20005;-80
2024/04/07 08:13:11;;;;;;;;;;;;;;;26.65;34.90;99083.75;5072514;28;20317;-80
2024/04/07 08:15:36;;;;;;;;;;;;;;;26.64;35.51;99085.81;5072515;28;19924;-80
2024/04/07 08:18:01;;;;;;;;;;;;;;;26.28;36.52;99081.72;5072306;28;19912;-80
2024/04/07 08:20:27;;;;;;;;;;;;;;;25.66;36.15;99087.31;5073733;28;19913;-80
2024/04/07 08:22:52;;;;;;;;;;;;;;;24.75;39.00;99070.84;5071944;28;19995;-80
2024/04/07 08:25:17;;;;;;;;;;;;;;;25.03;38.00;99073.47;5072420;28;19916;-80
2024/04/07 08:27:43;;;;;;;;;;;;;;;25.05;37.72;99068.84;5072096;28;19924;-83
2024/04/07 08:30:08;;;;;;;;;;;;;;;24.88;38.28;99076.66;5072080;28;20437;-80
2024/04/07 08:32:33;;;;;;;;;;;;;;;24.25;39.16;99077.56;5072216;28;19931;-81
2024/04/07 08:34:59;;;;;;;;;;;;;;;24.06;39.33;99082.25;5072041;28;19955;-80
2024/04/07 08:37:27;;;;;;;;;;;;;;;23.09;41.19;99081.41;5073308;28;19918;-82
2024/04/07 08:39:52;;;;;;;;;;;;;;;23.02;42.16;99082.72;5073755;28;19917;-82
2024/04/07 08:42:19;;;;;;;;;;;;;;;22.97;42.98;99079.88;5071576;28;19917;-80
2024/04/07 08:44:46;;;;;;;;;;;;;;;22.73;43.27;99077.56;5071937;28;20373;-80
2024/04/07 08:47:13;;;;;;;;;;;;;;;22.23;44.19;99085.88;5071703;28;19966;-80
2024/04/07 08:49:39;;;;;;;;;;;;;;;21.63;44.73;99082.25;5071849;28;19919;-80
2024/04/07 08:52:07;;;;;;;;;;;;;;;21.18;46.06;99083.22;5072130;28;19956;-83
2024/04/07 08:54:33;;;;;;;;;;;;;;;21.17;46.07;99087.31;5072961;28;19926;-80
2024/04/07 08:57:01;;;;;;;;;;;;;;;20.93;46.48;99079.94;5071672;28;20007;-82
2024/04/07 08:59:29;;;;;;;;;;;;;;;20.42;47.53;99094.00;5073126;28;20028;-80
2024/04/07 09:01:55;;;;;;;;;;;;;;;20.30;48.09;99090.28;5071723;28;19977;-81
2024/04/07 09:04:20;;;;;;;;;;;;;;;20.14;49.34;99099.25;5072918;28;19912;-80
2024/04/07 09:06:46;;;;;;;;;;;;;;;20.19;49.73;99098.56;5073324;28;19934;-81
2024/04/07 09:09:11;;;;;;;;;;;;;;;20.05;49.83;99114.22;5072706;28;19912;-79
2024/04/07 09:11:38;;;;;;;;;;;;;;;19.97;52.94;99109.50;5073001;28;20406;-81
2024/04/07 09:14:05;;;;;;;;;;;;;;;19.71;53.89;99109.44;5065186;28;20025;-83
2024/04/07 09:16:31;;;;;;;;;;;;;;;19.65;55.69;99108.59;5104719;28;19920;-80
2024/04/07 09:18:56;;;;;;;;;;;;;;;19.45;57.51;99112.88;5061660;28;20381;-81
2024/04/07 09:21:24;;;;;;;;;;;;;;;19.43;58.90;99120.97;5060361;28;19924;-80
2024/04/07 09:23:50;;;;;;;;;;;;;;;19.38;63.57;99110.44;5053819;28;20015;-83
2024/04/07 09:26:19;;;;;;;;;;;;;;;19.50;63.73;99119.81;5071401;28;19967;-82
2024/04/07 09:28:44;;;;;;;;;;;;;;;19.58;64.27;99120.97;5066448;28;19920;-81
2024/04/07 09:31:09;;;;;;;;;;;;;;;19.63;67.59;99116.69;5071227;28;20406;-83
2024/04/07 09:33:35;;;;;;;;;;;;;;;19.80;66.65;99126.13;5071668;28;19924;-84
2024/04/07 09:36:00;;;;;;;;;;;;;;;19.93;67.53;99129.34;5071898;28;20445;-83
2024/04/07 09:38:26;;;;;;;;;;;;;;;20.11;68.19;99140.31;5071622;28;19917;-83
2024/04/07 09:40:55;;;;;;;;;;;;;;;20.52;65.66;99146.69;5071627;28;19924;-83
2024/04/07 09:43:22;;;;;;;;;;;;;;;20.85;68.85;99137.84;5072704;28;19916;-83
2024/04/07 09:45:48;;;;;;;;;;;;;;;21.34;68.01;99130.38;5071461;28;19956;-83
2024/04/07 09:48:15;;;;;;;;;;;;;;;21.79;66.54;99120.97;5071092;28;19916;-83
2024/04/07 09:50:44;;;;;;;;;;;;;;;22.04;64.52;99124.19;5072478;28;19973;-82
2024/04/07 09:53:19;;;;;;;;;;;;;;;22.24;62.91;99135.28;5071067;28;20015;-83
2024/04/07 09:55:48;;;;;;;;;;;;;;;22.66;59.37;99126.72;5070715;28;19920;-82
2024/04/07 09:58:13;;;;;;;;;;;;;;;23.25;57.32;99136.28;5070730;28;19927;-82
2024/04/07 10:00:39;;;;;;;;;;;;;;;23.48;52.58;99141.41;5070988;28;19916;-82
2024/04/07 10:03:07;;;;;;;;;;;;;;;23.67;49.50;99140.88;5054310;28;21997;-83
2024/04/07 10:05:32;;;;;;;;;;;;;;;23.71;46.78;99144.19;5062130;28;20418;-83
2024/04/07 10:07:58;;;;;;;;;;;;;;;23.79;46.96;99140.34;5066027;28;20003;-83
2024/04/07 10:10:25;;;;;;;;;;;;;;;24.10;46.10;99142.06;5065276;28;19923;-84
2024/04/07 10:12:51;;;;;;;;;;;;;;;24.27;45.56;99142.00;5070248;28;19966;-84
2024/04/07 10:15:20;;;;;;;;;;;;;;;24.70;43.65;99133.84;5071822;28;19916;-83
2024/04/07 10:17:45;;;;;;;;;;;;;;;24.68;43.14;99142.06;5070070;28;19924;-84
2024/04/07 10:20:14;;;;;;;;;;;;;;;24.66;44.20;99139.75;5071898;28;19912;-83
2024/04/07 10:22:39;;;;;;;;;;;;;;;24.82;43.24;99143.78;5069646;28;19989;-83
2024/04/07 10:25:05;;;;;;;;;;;;;;;24.86;43.12;99129.34;5070964;28;20449;-84
2024/04/07 10:27:31;;;;;;;;;;;;;;;25.08;42.21;99123.56;5069609;28;19912;-84
2024/04/07 10:29:58;;;;;;;;;;;;;;;25.17;41.57;99122.47;5071026;28;19912;-82
2024/04/07 10:32:27;;;;;;;;;;;;;;;25.02;40.57;99115.13;5060817;28;19916;-83
2024/04/07 10:35:09;;;;;;;;;;;;;;;24.85;41.31;99125.00;5060737;28;19920;-83
2024/04/07 10:37:35;;;;;;;;;;;;;;;24.68;42.16;99136.41;5065350;28;20386;-83
2024/04/07 10:40:02;;;;;;;;;;;;;;;24.45;42.05;99132.94;5065109;28;19919;-82
2024/04/07 10:42:28;;;;;;;;;;;;;;;24.72;42.03;99132.00;5066973;28;19913;-84
2024/04/07 10:44:55;;;;;;;;;;;;;;;25.45;38.85;99125.81;5065168;28;20404;-83
2024/04/07 10:47:21;;;;;;;;;;;;;;;26.06;38.88;99124.44;5064005;28;20370;-83
2024/04/07 10:49:46;;;;;;;;;;;;;;;26.39;38.40;99128.97;5070709;28;19974;-85
2024/04/07 10:52:16;;;;;;;;;;;;;;;26.27;37.30;99128.34;5070510;28;20386;-83
2024/04/07 10:54:41;;;;;;;;;;;;;;;26.16;37.34;99134.13;5070532;28;19921;-84
2024/04/07 10:57:11;;;;;;;;;;;;;;;25.83;39.01;99130.38;5070348;28;19928;-85
2024/04/07 10:59:36;;;;;;;;;;;;;;;25.89;37.60;99142.41;5070791;28;19924;-85
2024/04/07 11:02:02;;;;;;;;;;;;;;;25.53;37.47;99129.63;5071473;28;19962;-84
2024/04/07 11:04:29;;;;;;;;;;;;;;;25.24;38.85;99130.41;5060755;28;19916;-82
2024/04/07 11:06:54;;;;;;;;;;;;;;;25.07;40.16;99144.69;5066970;28;19960;-85
2024/04/07 11:09:20;;;;;;;;;;;;;;;24.70;38.51;99140.25;5064907;28;20357;-82
2024/04/07 11:11:45;;;;;;;;;;;;;;;24.40;40.87;99141.44;5070267;28;19922;-82
2024/04/07 11:14:11;;;;;;;;;;;;;;;24.27;42.10;99151.25;5071006;28;19919;-85
2024/04/07 11:16:36;;;;;;;;;;;;;;;24.22;42.53;99149.22;5071666;28;20396;-86
2024/04/07 11:19:01;;;;;;;;;;;;;;;23.83;43.34;99146.47;5074603;28;19920;-87
2024/04/07 11:21:27;;;;;;;;;;;;;;;23.06;44.81;99156.50;5075869;28;19913;-86
2024/04/07 11:23:53;;;;;;;;;;;;;;;22.44;49.25;99151.22;5075163;28;19916;-87
2024/04/07 11:26:18;;;;;;;;;;;;;;;22.05;51.30;99151.81;5076109;28;19919;-86
2024/04/07 11:28:43;;;;;;;;;;;;;;;20.61;51.97;99171.03;5074617;28;19916;-85
2024/04/07 11:31:09;;;;;;;;;;;;;;;18.70;64.14;99177.00;5075973;28;20393;-89
2024/04/07 11:33:34;;;;;;;;;;;;;;;17.03;76.73;99176.78;5075832;28;19919;-85
2024/04/07 11:35:59;;;;;;;;;;;;;;;16.43;87.32;99178.69;5073245;28;19982;-87
2024/04/07 11:38:25;;;;;;;;;;;;;;;16.20;94.35;99186.41;5072230;28;19913;-88
2024/04/07 11:40:50;;;;;;;;;;;;;;;16.10;100.00;99181.25;5072349;28;20003;-87
2024/04/07 11:43:16;;;;;;;;;;;;;;;16.47;100.00;99168.13;5072450;28;20495;-86
2024/04/07 11:45:41;;;;;;;;;;;;;;;17.12;100.00;99175.97;5070472;28;19919;-85
2024/04/07 11:48:07;;;;;;;;;;;;;;;17.60;100.00;99174.13;5068171;28;19959;-85
2024/04/07 11:50:33;;;;;;;;;;;;;;;18.40;97.68;99170.53;5077085;28;19916;-85
2024/04/07 11:52:58;;;;;;;;;;;;;;;19.24;92.53;99152.50;5066841;28;20317;-84
2024/04/07 11:55:24;;;;;;;;;;;;;;;19.68;82.91;99150.41;5069778;28;20365;-85
2024/04/07 11:57:49;;;;;;;;;;;;;;;19.93;78.79;99151.78;5070644;28;19931;-84
2024/04/07 12:00:14;;;;;;;;;;;;;;;20.15;76.46;99152.06;5073748;28;20385;-84
2024/04/07 12:02:40;;;;;;;;;;;;;;;20.22;74.42;99157.28;5075774;28;20014;-85
2024/04/07 12:05:06;;;;;;;;;;;;;;;20.15;71.91;99146.47;5073978;28;19999;-84
2024/04/07 12:07:34;;;;;;;;;;;;;;;20.12;73.47;99139.03;5073542;28;19916;-84
2024/04/07 12:10:00;;;;;;;;;;;;;;;19.94;71.27;99133.72;5072644;28;19916;-86
2024/04/07 12:12:26;;;;;;;;;;;;;;;19.99;73.70;99130.19;5074228;28;19931;-84
2024/04/07 12:14:51;;;;;;;;;;;;;;;20.08;72.51;99106.81;5072729;28;19920;-85
2024/04/07 12:17:17;;;;;;;;;;;;;;;20.09;69.06;99120.38;5073396;28;20412;-85
2024/04/07 12:19:42;;;;;;;;;;;;;;;20.27;71.67;99100.44;5073256;28;20457;-84
2024/04/07 12:22:08;;;;;;;;;;;;;;;20.52;65.21;99090.53;5073170;28;19920;-85
2024/04/07 12:24:34;;;;;;;;;;;;;;;20.73;63.05;99093.31;5073125;28;19971;-85
2024/04/07 12:26:59;;;;;;;;;;;;;;;21.00;58.46;99095.56;5073456;28;19960;-84
2024/04/07 12:29:24;;;;;;;;;;;;;;;21.57;57.54;99095.53;5073703;28;19940;-84
2024/04/07 12:31:51;;;;;;;;;;;;;;;22.11;53.85;99101.19;5073826;28;19916;-85
2024/04/07 12:34:16;;;;;;;;;;;;;;;22.53;50.01;99103.88;5074450;28;19924;-83
2024/04/07 12:36:42;;;;;;;;;;;;;;;22.65;49.76;99099.03;5074478;28;20294;-83
2024/04/07 12:39:11;;;;;;;;;;;;;;;22.69;46.79;99100.31;5072529;28;19917;-86
2024/04/07 12:41:39;;;;;;;;;;;;;;;22.66;48.39;99104.19;5073931;28;20042;-83